createdAt,value
2023-05-20T00:01:08.087Z,10.60
2023-05-20T00:03:37.379Z,11.00
2023-05-20T00:06:06.867Z,10.00
2023-05-20T00:08:36.483Z,9.80
2023-05-20T00:11:06.391Z,10.20
2023-05-20T00:13:36.403Z,8.60
2023-05-20T00:16:07.077Z,8.40
2023-05-20T00:18:36.603Z,8.60
2023-05-20T00:21:06.168Z,9.00
2023-05-20T00:23:36.351Z,8.60
2023-05-20T00:26:05.797Z,7.80
2023-05-20T00:28:35.494Z,8.10
2023-05-20T00:31:05.201Z,9.50
2023-05-20T00:33:36.548Z,8.40
2023-05-20T00:36:06.731Z,8.80
2023-05-20T00:38:36.194Z,9.00
2023-05-20T00:41:05.510Z,9.80
2023-05-20T00:43:34.790Z,9.50
2023-05-20T00:46:04.542Z,9.20
2023-05-20T00:48:43.626Z,10.80
2023-05-20T00:51:14.573Z,9.40
2023-05-20T00:53:44.786Z,9.70
2023-05-20T00:56:15.431Z,9.20
2023-05-20T00:58:45.120Z,10.20
2023-05-20T01:01:15.362Z,10.20
2023-05-20T01:03:45.177Z,9.80
2023-05-20T01:06:14.586Z,11.20
2023-05-20T01:08:44.174Z,10.20
2023-05-20T01:11:34.566Z,10.50
2023-05-20T01:14:10.291Z,11.70
2023-05-20T01:16:39.984Z,11.60
2023-05-20T01:19:35.854Z,11.40
2023-05-20T01:22:12.732Z,12.50
2023-05-20T01:24:49.737Z,11.40
2023-05-20T01:27:22.703Z,10.30
2023-05-20T01:29:53.552Z,13.20
2023-05-20T01:32:28.419Z,13.80
2023-05-20T01:34:59.078Z,13.00
2023-05-20T01:37:30.284Z,11.20
2023-05-20T01:40:01.115Z,10.30
2023-05-20T01:42:30.489Z,11.30
2023-05-20T01:45:00.600Z,10.80
2023-05-20T01:47:30.247Z,10.60
2023-05-20T01:49:59.920Z,11.30
2023-05-20T01:52:31.949Z,12.00
2023-05-20T01:55:01.612Z,12.20
2023-05-20T01:57:31.097Z,12.00
2023-05-20T02:00:00.626Z,12.20
2023-05-20T02:02:30.269Z,12.40
2023-05-20T02:04:59.542Z,10.60
2023-05-20T02:07:28.922Z,11.60
2023-05-20T02:09:58.726Z,12.90
2023-05-20T02:12:28.033Z,12.60
2023-05-20T02:14:57.332Z,12.10
2023-05-20T02:17:27.304Z,12.50
2023-05-20T02:19:56.968Z,11.90
2023-05-20T02:22:26.182Z,12.10
2023-05-20T02:24:55.707Z,13.80
2023-05-20T02:27:25.370Z,11.20
2023-05-20T02:29:54.965Z,11.20
2023-05-20T02:32:28.207Z,10.60
2023-05-20T02:34:57.802Z,10.90
2023-05-20T02:37:27.409Z,10.30
2023-05-20T02:39:56.830Z,11.50
2023-05-20T02:42:26.143Z,10.30
2023-05-20T02:44:58.773Z,10.00
2023-05-20T02:47:28.396Z,12.00
2023-05-20T02:49:57.794Z,12.80
2023-05-20T02:52:27.185Z,12.50
2023-05-20T02:54:56.728Z,13.70
2023-05-20T02:57:27.585Z,13.20
2023-05-20T02:59:57.441Z,15.70
2023-05-20T03:02:26.792Z,15.80
2023-05-20T03:04:56.215Z,18.90
2023-05-20T03:07:26.368Z,17.80
2023-05-20T03:09:55.857Z,18.40
2023-05-20T03:12:26.505Z,16.50
2023-05-20T03:14:55.808Z,17.40
2023-05-20T03:17:25.518Z,15.20
2023-05-20T03:19:54.921Z,16.20
2023-05-20T03:22:25.471Z,15.50
2023-05-20T03:24:55.262Z,13.70
2023-05-20T03:27:26.664Z,14.50
2023-05-20T03:29:56.549Z,13.40
2023-05-20T03:32:26.966Z,13.00
2023-05-20T03:34:58.300Z,12.40
2023-05-20T03:37:27.950Z,11.80
2023-05-20T03:39:57.626Z,11.50
2023-05-20T03:42:27.342Z,10.50
2023-05-20T03:44:57.674Z,10.90
2023-05-20T03:47:29.189Z,12.90
2023-05-20T03:49:58.720Z,12.90
2023-05-20T03:52:28.343Z,12.90
2023-05-20T03:54:58.338Z,12.70
2023-05-20T03:57:27.549Z,13.30
2023-05-20T03:59:56.853Z,13.30
2023-05-20T04:02:26.927Z,13.00
2023-05-20T04:04:57.998Z,13.10
2023-05-20T04:07:27.308Z,13.30
2023-05-20T04:09:56.945Z,13.10
2023-05-20T04:12:30.819Z,13.00
2023-05-20T04:15:03.729Z,14.20
2023-05-20T04:17:40.664Z,14.20
2023-05-20T04:20:11.554Z,13.50
2023-05-20T04:22:40.926Z,14.70
2023-05-20T04:25:11.128Z,12.50
2023-05-20T04:27:40.549Z,12.00
2023-05-20T04:30:11.258Z,12.60
2023-05-20T04:32:42.456Z,14.10
2023-05-20T04:35:14.075Z,13.00
2023-05-20T04:37:48.384Z,12.30
2023-05-20T04:40:19.175Z,13.90
2023-05-20T04:42:48.847Z,13.50
2023-05-20T04:45:18.764Z,14.50
2023-05-20T04:47:48.089Z,14.60
2023-05-20T04:50:17.560Z,14.70
2023-05-20T04:52:47.394Z,14.10
2023-05-20T04:55:16.679Z,14.10
2023-05-20T04:57:45.773Z,13.70
2023-05-20T05:00:16.180Z,14.40
2023-05-20T05:02:45.910Z,12.20
2023-05-20T05:05:15.930Z,12.60
2023-05-20T05:07:45.185Z,12.70
2023-05-20T05:10:16.167Z,12.40
2023-05-20T05:12:45.653Z,12.90
2023-05-20T05:15:15.402Z,10.50
2023-05-20T05:17:46.398Z,10.70
2023-05-20T05:20:16.751Z,12.20
2023-05-20T05:22:46.468Z,9.70
2023-05-20T05:25:16.287Z,10.10
2023-05-20T05:27:45.702Z,9.40
2023-05-20T05:30:15.187Z,10.60
2023-05-20T05:32:44.744Z,9.10
2023-05-20T05:35:14.436Z,13.30
2023-05-20T05:37:44.121Z,10.70
2023-05-20T05:40:14.458Z,10.20
2023-05-20T05:42:44.052Z,10.60
2023-05-20T05:45:14.484Z,8.90
2023-05-20T05:47:44.122Z,10.10
2023-05-20T05:50:13.783Z,9.50
2023-05-20T05:52:42.895Z,8.70
2023-05-20T05:55:12.894Z,9.70
2023-05-20T05:57:42.612Z,9.20
2023-05-20T06:00:13.247Z,8.20
2023-05-20T06:02:49.109Z,9.80
2023-05-20T06:05:33.220Z,9.40
2023-05-20T06:08:03.075Z,9.00
2023-05-20T06:10:35.935Z,8.00
2023-05-20T06:13:05.146Z,8.00
2023-05-20T06:15:36.680Z,9.30
2023-05-20T06:18:06.321Z,8.80
2023-05-20T06:20:36.130Z,8.70
2023-05-20T06:23:05.928Z,8.70
2023-05-20T06:25:44.040Z,8.60
2023-05-20T06:28:13.566Z,7.90
2023-05-20T06:30:44.768Z,8.90
2023-05-20T06:33:14.602Z,9.20
2023-05-20T06:35:44.207Z,8.40
2023-05-20T06:38:13.684Z,8.40
2023-05-20T06:40:43.132Z,8.20
2023-05-20T06:43:12.426Z,8.50
2023-05-20T06:45:56.656Z,9.90
2023-05-20T06:48:31.327Z,9.70
2023-05-20T06:51:01.732Z,8.40
2023-05-20T06:53:31.041Z,9.80
2023-05-20T06:56:01.250Z,9.30
2023-05-20T06:58:30.439Z,8.60
2023-05-20T07:01:00.688Z,9.60
2023-05-20T07:03:30.028Z,8.00
2023-05-20T07:05:59.758Z,9.40
2023-05-20T07:08:29.059Z,8.60
2023-05-20T07:10:58.387Z,10.00
2023-05-20T07:13:27.992Z,9.40
2023-05-20T07:15:57.686Z,9.70
2023-05-20T07:18:28.498Z,9.40
2023-05-20T07:21:00.092Z,8.50
2023-05-20T07:23:56.429Z,9.10
2023-05-20T07:26:25.855Z,8.90
2023-05-20T07:28:55.167Z,8.50
2023-05-20T07:31:25.282Z,9.40
2023-05-20T07:33:55.057Z,8.70
2023-05-20T07:36:28.393Z,8.50
2023-05-20T07:39:04.167Z,8.20
2023-05-20T07:41:38.730Z,7.90
2023-05-20T07:44:09.059Z,9.20
2023-05-20T07:46:42.108Z,8.30
2023-05-20T07:49:13.621Z,9.20
2023-05-20T07:51:43.283Z,8.50
2023-05-20T07:54:13.650Z,7.80
2023-05-20T07:56:43.660Z,9.10
2023-05-20T07:59:14.104Z,8.60
2023-05-20T08:01:47.417Z,8.80
2023-05-20T08:04:18.232Z,8.60
2023-05-20T08:06:49.148Z,8.90
2023-05-20T08:09:23.982Z,7.70
2023-05-20T08:11:57.274Z,8.10
2023-05-20T08:14:26.797Z,7.90
2023-05-20T08:16:56.630Z,7.30
2023-05-20T08:19:26.332Z,7.30
2023-05-20T08:21:55.823Z,7.80
2023-05-20T08:24:25.314Z,7.80
2023-05-20T08:26:55.800Z,8.00
2023-05-20T08:29:26.823Z,8.70
2023-05-20T08:31:56.321Z,7.70
2023-05-20T08:34:27.124Z,7.70
2023-05-20T08:36:57.925Z,7.90
2023-05-20T08:39:27.485Z,7.70
2023-05-20T08:41:58.915Z,7.70
2023-05-20T08:44:28.521Z,6.60
2023-05-20T08:46:58.257Z,7.20
2023-05-20T08:49:27.469Z,7.50
2023-05-20T08:51:56.905Z,7.70
2023-05-20T08:54:33.431Z,7.90
2023-05-20T08:57:03.020Z,7.60
2023-05-20T08:59:33.346Z,7.10
2023-05-20T09:02:03.353Z,6.60
2023-05-20T09:04:32.820Z,6.80
2023-05-20T09:07:02.272Z,14.70
2023-05-20T09:09:34.563Z,16.90
2023-05-20T09:12:04.745Z,5.90
2023-05-20T09:14:33.957Z,7.60
2023-05-20T09:17:05.105Z,7.10
2023-05-20T09:19:34.367Z,6.00
2023-05-20T09:22:05.600Z,8.40
2023-05-20T09:24:35.049Z,6.70
2023-05-20T09:27:06.216Z,6.30
2023-05-20T09:29:35.493Z,9.50
2023-05-20T09:32:05.766Z,6.00
2023-05-20T09:34:35.630Z,5.80
2023-05-20T09:37:08.190Z,5.30
2023-05-20T09:40:01.520Z,5.70
2023-05-20T09:42:38.862Z,5.50
2023-05-20T09:45:12.232Z,5.10
2023-05-20T09:47:43.705Z,5.80
2023-05-20T09:50:13.907Z,7.00
2023-05-20T09:52:44.705Z,9.40
2023-05-20T09:55:15.351Z,7.70
2023-05-20T09:57:44.608Z,7.00
2023-05-20T10:00:17.636Z,6.60
2023-05-20T10:02:51.123Z,5.90
2023-05-20T10:05:37.016Z,5.70
2023-05-20T10:08:37.102Z,7.70
2023-05-20T10:11:48.625Z,7.80
2023-05-20T10:14:55.374Z,6.70
2023-05-20T10:18:03.655Z,6.10
2023-05-20T10:20:33.074Z,7.50
2023-05-20T10:23:02.611Z,7.30
2023-05-20T10:25:35.149Z,7.00
2023-05-20T10:28:13.489Z,6.80
2023-05-20T10:30:51.164Z,6.40
2023-05-20T10:33:20.436Z,7.50
2023-05-20T10:35:53.099Z,6.70
2023-05-20T10:38:22.316Z,6.20
2023-05-20T10:40:52.824Z,7.00
2023-05-20T10:43:29.211Z,7.20
2023-05-20T10:48:33.748Z,6.30
2023-05-20T10:51:07.100Z,6.30
2023-05-20T10:53:42.532Z,6.30
2023-05-20T10:56:26.400Z,6.20
2023-05-20T10:58:56.301Z,7.90
2023-05-20T11:01:27.457Z,7.40
2023-05-20T11:03:58.563Z,6.40
2023-05-20T11:06:29.211Z,6.20
2023-05-20T11:09:08.278Z,4.80
2023-05-20T11:11:38.743Z,7.20
2023-05-20T11:14:08.320Z,6.50
2023-05-20T11:16:37.961Z,6.90
2023-05-20T11:19:17.464Z,7.10
2023-05-20T11:21:47.854Z,6.30
2023-05-20T11:24:27.815Z,7.10
2023-05-20T11:26:58.236Z,5.90
2023-05-20T11:29:29.326Z,6.50
2023-05-20T11:32:00.365Z,6.00
2023-05-20T11:34:39.990Z,5.70
2023-05-20T11:37:11.371Z,5.60
2023-05-20T11:39:40.744Z,6.10
2023-05-20T11:42:10.024Z,6.40
2023-05-20T11:44:45.328Z,6.20
2023-05-20T11:47:14.893Z,6.30
2023-05-20T11:49:48.589Z,5.60
2023-05-20T11:52:17.771Z,5.90
2023-05-20T11:54:53.711Z,6.00
2023-05-20T11:57:23.552Z,5.30
2023-05-20T11:59:53.139Z,4.80
2023-05-20T12:02:22.244Z,4.80
2023-05-20T12:04:51.754Z,4.90
2023-05-20T12:07:21.246Z,6.40
2023-05-20T12:09:50.450Z,6.00
2023-05-20T12:12:20.509Z,5.40
2023-05-20T12:14:49.736Z,5.20
2023-05-20T12:17:18.817Z,5.50
2023-05-20T12:19:48.070Z,5.10
2023-05-20T12:22:17.895Z,5.00
2023-05-20T12:24:47.076Z,5.20
2023-05-20T12:27:16.138Z,5.40
2023-05-20T12:29:46.001Z,5.60
2023-05-20T12:32:15.223Z,5.60
2023-05-20T12:34:44.353Z,5.40
2023-05-20T12:37:13.659Z,5.80
2023-05-20T12:39:43.215Z,5.60
2023-05-20T12:42:12.787Z,5.20
2023-05-20T12:44:42.078Z,5.90
2023-05-20T12:47:11.497Z,9.30
2023-05-20T12:49:40.980Z,6.10
2023-05-20T12:52:18.917Z,6.90
2023-05-20T12:54:52.090Z,6.60
2023-05-20T12:57:23.905Z,5.20
2023-05-20T12:59:53.253Z,6.90
2023-05-20T13:02:22.592Z,5.70
2023-05-20T13:04:51.955Z,5.00
2023-05-20T13:07:21.092Z,6.60
2023-05-20T13:09:50.862Z,4.60
2023-05-20T13:12:21.092Z,5.40
2023-05-20T13:14:50.271Z,4.60
2023-05-20T13:17:20.386Z,5.60
2023-05-20T13:19:50.629Z,4.20
2023-05-20T13:22:19.927Z,5.00
2023-05-20T13:24:49.209Z,4.30
2023-05-20T13:27:18.252Z,4.80
2023-05-20T13:29:47.749Z,4.10
2023-05-20T13:32:17.744Z,4.50
2023-05-20T13:34:47.272Z,4.20
2023-05-20T13:37:16.548Z,10.20
2023-05-20T13:39:46.771Z,5.40
2023-05-20T13:42:16.692Z,4.70
2023-05-20T13:44:45.838Z,4.30
2023-05-20T13:47:15.497Z,5.10
2023-05-20T13:49:44.828Z,4.80
2023-05-20T13:52:14.041Z,4.60
2023-05-20T13:54:44.844Z,4.60
2023-05-20T13:57:14.878Z,4.40
2023-05-20T13:59:44.272Z,4.50
2023-05-20T14:02:13.416Z,5.40
2023-05-20T14:04:45.077Z,5.30
2023-05-20T14:07:14.927Z,5.30
2023-05-20T14:09:44.325Z,5.80
2023-05-20T14:12:13.657Z,5.00
2023-05-20T14:14:43.126Z,5.80
2023-05-20T14:17:12.434Z,4.70
2023-05-20T14:19:41.626Z,5.80
2023-05-20T14:22:13.073Z,6.00
2023-05-20T14:24:42.194Z,5.80
2023-05-20T14:27:11.789Z,6.10
2023-05-20T14:29:41.292Z,5.70
2023-05-20T14:32:13.664Z,5.50
2023-05-20T14:34:42.903Z,4.70
2023-05-20T14:37:12.575Z,5.00
2023-05-20T14:39:42.178Z,4.40
2023-05-20T14:42:12.126Z,4.90
2023-05-20T14:44:41.395Z,6.10
2023-05-20T14:47:10.880Z,5.20
2023-05-20T14:49:41.946Z,4.70
2023-05-20T14:52:11.148Z,5.50
2023-05-20T14:54:40.645Z,5.20
2023-05-20T14:57:10.091Z,6.60
2023-05-20T14:59:39.481Z,6.50
2023-05-20T15:02:09.244Z,5.10
2023-05-20T15:04:40.913Z,5.70
2023-05-20T15:07:10.125Z,6.10
2023-05-20T15:09:39.729Z,5.90
2023-05-20T15:12:11.255Z,5.70
2023-05-20T15:14:40.506Z,5.20
2023-05-20T15:17:10.123Z,4.60
2023-05-20T15:19:41.862Z,6.00
2023-05-20T15:22:11.367Z,5.70
2023-05-20T15:24:40.762Z,5.40
2023-05-20T15:27:10.054Z,6.00
2023-05-20T15:29:40.916Z,5.60
2023-05-20T15:32:10.743Z,6.10
2023-05-20T15:34:40.415Z,5.50
2023-05-20T15:37:09.854Z,7.50
2023-05-20T15:39:39.553Z,5.30
2023-05-20T15:42:13.880Z,5.10
2023-05-20T15:44:43.237Z,6.00
2023-05-20T15:47:12.368Z,5.00
2023-05-20T15:49:41.683Z,5.60
2023-05-20T15:52:11.053Z,4.90
2023-05-20T15:54:40.554Z,5.00
2023-05-20T15:57:10.371Z,5.00
2023-05-20T15:59:39.772Z,4.60
2023-05-20T16:02:09.849Z,5.40
2023-05-20T16:04:42.120Z,4.70
2023-05-20T16:07:12.311Z,5.70
2023-05-20T16:09:41.901Z,4.80
2023-05-20T16:12:14.415Z,5.10
2023-05-20T16:14:45.098Z,5.00
2023-05-20T16:17:14.638Z,5.30
2023-05-20T16:19:43.931Z,4.80
2023-05-20T16:22:14.139Z,5.00
2023-05-20T16:24:43.432Z,5.60
2023-05-20T16:27:13.329Z,6.60
2023-05-20T16:29:42.543Z,5.40
2023-05-20T16:32:12.053Z,8.00
2023-05-20T16:34:41.355Z,6.50
2023-05-20T16:37:11.132Z,5.70
2023-05-20T16:39:40.780Z,8.20
2023-05-20T16:42:10.086Z,6.10
2023-05-20T16:44:39.702Z,7.50
2023-05-20T16:47:09.370Z,5.60
2023-05-20T16:49:39.406Z,6.00
2023-05-20T16:52:08.986Z,5.30
2023-05-20T16:54:38.252Z,7.50
2023-05-20T16:57:08.649Z,6.10
2023-05-20T16:59:38.085Z,5.90
2023-05-20T17:02:07.343Z,6.00
2023-05-20T17:04:37.423Z,5.90
2023-05-20T17:07:10.252Z,6.80
2023-05-20T17:09:40.093Z,6.20
2023-05-20T17:12:09.565Z,5.00
2023-05-20T17:14:39.546Z,5.30
2023-05-20T17:17:09.791Z,6.40
2023-05-20T17:19:39.521Z,5.80
2023-05-20T17:22:09.121Z,5.90
2023-05-20T17:24:38.233Z,5.40
2023-05-20T17:27:08.235Z,5.20
2023-05-20T17:29:38.558Z,5.70
2023-05-20T17:32:08.094Z,5.00
2023-05-20T17:34:37.369Z,5.60
2023-05-20T17:37:06.445Z,6.20
2023-05-20T17:39:35.964Z,4.90
2023-05-20T17:42:06.033Z,6.40
2023-05-20T17:44:35.592Z,5.60
2023-05-20T17:47:05.510Z,6.50
2023-05-20T17:49:34.912Z,7.40
2023-05-20T17:52:04.871Z,6.60
2023-05-20T17:54:34.271Z,6.70
2023-05-20T17:57:04.257Z,6.80
2023-05-20T17:59:42.068Z,7.00
2023-05-20T18:02:12.902Z,6.80
2023-05-20T18:04:42.211Z,6.10
2023-05-20T18:07:13.434Z,5.90
2023-05-20T18:09:43.069Z,7.00
2023-05-20T18:12:12.546Z,6.40
2023-05-20T18:14:42.179Z,7.40
2023-05-20T18:17:11.594Z,6.30
2023-05-20T18:19:41.068Z,6.30
2023-05-20T18:22:11.079Z,6.50
2023-05-20T18:24:40.588Z,6.20
2023-05-20T18:27:10.110Z,7.20
2023-05-20T18:29:39.592Z,7.10
2023-05-20T18:32:09.120Z,6.80
2023-05-20T18:34:38.811Z,7.20
2023-05-20T18:37:08.526Z,6.80
2023-05-20T18:39:37.855Z,6.90
2023-05-20T18:42:07.224Z,6.30
2023-05-20T18:44:36.417Z,6.70
2023-05-20T18:47:06.165Z,6.60
2023-05-20T18:49:35.840Z,6.30
2023-05-20T18:52:06.243Z,6.60
2023-05-20T18:54:36.701Z,6.50
2023-05-20T18:57:08.361Z,7.40
2023-05-20T18:59:38.281Z,6.90
2023-05-20T19:02:07.606Z,7.20
2023-05-20T19:04:36.714Z,7.40
2023-05-20T19:07:06.618Z,7.60
2023-05-20T19:09:35.873Z,7.90
2023-05-20T19:12:06.857Z,7.90
2023-05-20T19:14:36.453Z,6.70
2023-05-20T19:17:06.381Z,7.90
2023-05-20T19:19:36.872Z,6.50
2023-05-20T19:22:06.779Z,6.70
2023-05-20T19:24:36.564Z,6.30
2023-05-20T19:27:06.132Z,6.20
2023-05-20T19:29:35.509Z,6.60
2023-05-20T19:32:06.004Z,6.20
2023-05-20T19:34:35.227Z,7.00
2023-05-20T19:37:05.974Z,7.20
2023-05-20T19:39:35.315Z,7.10
2023-05-20T19:42:05.223Z,6.70
2023-05-20T19:44:34.691Z,7.30
2023-05-20T19:47:07.945Z,7.70
2023-05-20T19:49:37.679Z,7.60
2023-05-20T19:52:08.092Z,8.40
2023-05-20T19:54:37.346Z,7.10
2023-05-20T19:57:06.823Z,7.40
2023-05-20T19:59:38.234Z,7.40
2023-05-20T20:02:07.566Z,7.30
2023-05-20T20:04:37.450Z,7.50
2023-05-20T20:07:08.441Z,8.40
2023-05-20T20:09:38.039Z,8.00
2023-05-20T20:12:07.972Z,7.60
2023-05-20T20:14:37.285Z,8.00
2023-05-20T20:17:06.572Z,8.70
2023-05-20T20:19:36.162Z,7.80
2023-05-20T20:22:05.593Z,8.60
2023-05-20T20:24:35.071Z,7.20
2023-05-20T20:27:06.238Z,8.70
2023-05-20T20:29:35.617Z,7.90
2023-05-20T20:32:06.241Z,7.50
2023-05-20T20:34:35.564Z,7.60
2023-05-20T20:37:05.440Z,7.50
2023-05-20T20:39:37.355Z,6.60
2023-05-20T20:42:06.939Z,7.60
2023-05-20T20:44:36.334Z,6.90
2023-05-20T20:47:05.833Z,6.80
2023-05-20T20:49:35.972Z,7.90
2023-05-20T20:52:06.132Z,7.60
2023-05-20T20:54:35.504Z,7.20
2023-05-20T20:57:05.751Z,7.30
2023-05-20T20:59:35.446Z,8.30
2023-05-20T21:02:05.054Z,8.00
2023-05-20T21:04:34.336Z,7.10
2023-05-20T21:07:03.867Z,7.30
2023-05-20T21:09:33.331Z,7.20
2023-05-20T21:12:06.871Z,7.60
2023-05-20T21:14:36.824Z,7.20
2023-05-20T21:17:06.388Z,7.50
2023-05-20T21:19:36.381Z,7.40
2023-05-20T21:22:05.808Z,8.80
2023-05-20T21:24:35.141Z,7.80
2023-05-20T21:27:04.576Z,7.80
2023-05-20T21:29:35.345Z,9.70
2023-05-20T21:32:05.577Z,8.90
2023-05-20T21:34:34.958Z,10.30
2023-05-20T21:37:04.658Z,9.10
2023-05-20T21:39:34.634Z,9.10
2023-05-20T21:42:04.192Z,9.50
2023-05-20T21:44:34.005Z,10.20
2023-05-20T21:47:03.086Z,9.80
2023-05-20T21:49:33.209Z,8.10
2023-05-20T21:52:02.340Z,9.70
2023-05-20T21:54:31.708Z,9.60
2023-05-20T21:57:02.804Z,8.10
2023-05-20T21:59:32.363Z,8.00
2023-05-20T22:02:01.638Z,8.30
2023-05-20T22:04:33.544Z,8.70
2023-05-20T22:07:05.801Z,8.90
2023-05-20T22:09:35.551Z,9.00
2023-05-20T22:12:05.478Z,7.70
2023-05-20T22:14:35.057Z,9.90
2023-05-20T22:17:04.544Z,9.60
2023-05-20T22:19:34.406Z,8.50
2023-05-20T22:22:04.132Z,8.20
2023-05-20T22:24:33.459Z,7.90
2023-05-20T22:27:04.082Z,8.90
2023-05-20T22:29:33.604Z,8.20
2023-05-20T22:32:03.517Z,8.80
2023-05-20T22:34:33.019Z,9.00
2023-05-20T22:37:03.240Z,7.80
2023-05-20T22:39:32.978Z,7.80
2023-05-20T22:42:04.400Z,9.10
2023-05-20T22:44:33.702Z,9.00
2023-05-20T22:47:03.096Z,9.20
2023-05-20T22:49:32.779Z,8.40
2023-05-20T22:52:02.341Z,8.20
2023-05-20T22:54:31.601Z,8.20
2023-05-20T22:57:00.798Z,8.60
2023-05-20T22:59:31.419Z,7.70
2023-05-20T23:02:00.651Z,8.70
2023-05-20T23:04:30.060Z,7.60
2023-05-20T23:07:00.241Z,7.40
2023-05-20T23:09:29.611Z,7.70
2023-05-20T23:11:58.983Z,8.50
2023-05-20T23:14:28.145Z,7.70
2023-05-20T23:16:57.619Z,7.30
2023-05-20T23:19:26.931Z,7.90
2023-05-20T23:21:57.053Z,8.30
2023-05-20T23:24:26.845Z,8.40
2023-05-20T23:26:56.125Z,7.80
2023-05-20T23:29:26.985Z,8.30
2023-05-20T23:31:56.354Z,9.50
2023-05-20T23:34:27.586Z,8.90
2023-05-20T23:36:57.147Z,8.90
2023-05-20T23:39:26.615Z,8.90
2023-05-20T23:41:55.835Z,8.90
2023-05-20T23:44:25.264Z,8.50
2023-05-20T23:46:54.723Z,8.70
2023-05-20T23:49:27.320Z,9.30
2023-05-20T23:51:56.895Z,8.90
2023-05-20T23:54:26.308Z,8.90
2023-05-20T23:56:55.672Z,9.40
2023-05-20T23:59:24.909Z,9.00
